sensor_id;sensor_type;location;lat;lon;timestamp;pressure;altitude;pressure_sealevel;temperature;humidity
44079;BME280;29744;49.078;12.878;2022-08-01T00:03:59;96344.22;;;20.82;41.84
44079;BME280;29744;49.078;12.878;2022-08-01T00:09:00;96345.38;;;20.81;41.96
44079;BME280;29744;49.078;12.878;2022-08-01T00:14:00;96330.19;;;20.80;41.83
44079;BME280;29744;49.078;12.878;2022-08-01T00:19:00;96329.03;;;20.81;41.68
44079;BME280;29744;49.078;12.878;2022-08-01T00:24:01;96331.75;;;20.81;42.23
44079;BME280;29744;49.078;12.878;2022-08-01T00:29:01;96323.56;;;20.81;42.35
44079;BME280;29744;49.078;12.878;2022-08-01T00:34:01;96322.00;;;20.80;41.96
44079;BME280;29744;49.078;12.878;2022-08-01T00:39:02;96320.84;;;20.81;42.03
44079;BME280;29744;49.078;12.878;2022-08-01T00:44:05;96310.31;;;20.79;42.07
44079;BME280;29744;49.078;12.878;2022-08-01T00:49:05;96315.75;;;20.79;42.01
44079;BME280;29744;49.078;12.878;2022-08-01T00:54:06;96311.47;;;20.78;41.71
44079;BME280;29744;49.078;12.878;2022-08-01T00:59:07;96312.25;;;20.79;41.91
44079;BME280;29744;49.078;12.878;2022-08-01T01:04:07;96301.34;;;20.79;42.22
44079;BME280;29744;49.078;12.878;2022-08-01T01:09:24;96314.19;;;20.78;41.96
44079;BME280;29744;49.078;12.878;2022-08-01T01:19:54;96299.00;;;20.77;42.15
44079;BME280;29744;49.078;12.878;2022-08-01T01:25:21;96298.56;;;20.75;41.80
44079;BME280;29744;49.078;12.878;2022-08-01T01:30:23;96294.69;;;20.76;41.99
44079;BME280;29744;49.078;12.878;2022-08-01T01:35:29;96301.72;;;20.77;42.16
44079;BME280;29744;49.078;12.878;2022-08-01T01:40:32;96287.31;;;20.77;42.40
44079;BME280;29744;49.078;12.878;2022-08-01T01:45:33;96292.75;;;20.77;42.21
44079;BME280;29744;49.078;12.878;2022-08-01T01:50:34;96282.66;;;20.77;42.43
44079;BME280;29744;49.078;12.878;2022-08-01T01:55:37;96279.91;;;20.77;41.96
44079;BME280;29744;49.078;12.878;2022-08-01T02:00:40;96279.13;;;20.77;42.30
44079;BME280;29744;49.078;12.878;2022-08-01T02:05:41;96278.34;;;20.76;42.25
44079;BME280;29744;49.078;12.878;2022-08-01T02:10:42;96276.78;;;20.75;42.03
44079;BME280;29744;49.078;12.878;2022-08-01T02:16:05;96285.75;;;20.76;42.03
44079;BME280;29744;49.078;12.878;2022-08-01T02:21:09;96291.19;;;20.76;42.07
44079;BME280;29744;49.078;12.878;2022-08-01T02:26:14;96293.91;;;20.76;42.07
44079;BME280;29744;49.078;12.878;2022-08-01T02:31:18;96293.91;;;20.76;41.88
44079;BME280;29744;49.078;12.878;2022-08-01T02:36:21;96299.38;;;20.76;41.88
44079;BME280;29744;49.078;12.878;2022-08-01T02:41:26;96285.75;;;20.76;42.05
44079;BME280;29744;49.078;12.878;2022-08-01T02:46:33;96297.78;;;20.75;42.18
44079;BME280;29744;49.078;12.878;2022-08-01T02:51:36;96295.06;;;20.75;42.04
44079;BME280;29744;49.078;12.878;2022-08-01T02:56:38;96297.00;;;20.74;41.93
44079;BME280;29744;49.078;12.878;2022-08-01T03:01:42;96302.47;;;20.74;42.10
44079;BME280;29744;49.078;12.878;2022-08-01T03:06:44;96307.91;;;20.74;42.01
44079;BME280;29744;49.078;12.878;2022-08-01T03:11:45;96307.13;;;20.74;42.26
44079;BME280;29744;49.078;12.878;2022-08-01T03:16:46;96305.53;;;20.73;41.72
44079;BME280;29744;49.078;12.878;2022-08-01T03:21:49;96307.13;;;20.74;42.06
44079;BME280;29744;49.078;12.878;2022-08-01T03:26:51;96307.13;;;20.74;42.05
44079;BME280;29744;49.078;12.878;2022-08-01T03:31:53;96311.78;;;20.73;41.95
44079;BME280;29744;49.078;12.878;2022-08-01T03:37:02;96317.59;;;20.72;42.01
44079;BME280;29744;49.078;12.878;2022-08-01T03:42:09;96323.84;;;20.72;42.15
44079;BME280;29744;49.078;12.878;2022-08-01T03:47:13;96323.84;;;20.72;42.37
44079;BME280;29744;49.078;12.878;2022-08-01T03:52:14;96331.22;;;20.72;42.49
44079;BME280;29744;49.078;12.878;2022-08-01T03:57:16;96326.56;;;20.72;42.17
44079;BME280;29744;49.078;12.878;2022-08-01T04:02:18;96325.78;;;20.72;42.05
44079;BME280;29744;49.078;12.878;2022-08-01T04:07:30;96325.34;;;20.70;42.04
44079;BME280;29744;49.078;12.878;2022-08-01T04:12:30;96333.94;;;20.72;42.23
44079;BME280;29744;49.078;12.878;2022-08-01T04:17:32;96339.41;;;20.72;41.96
44079;BME280;29744;49.078;12.878;2022-08-01T04:22:33;96344.06;;;20.71;41.99
44079;BME280;29744;49.078;12.878;2022-08-01T04:27:37;96353.03;;;20.72;42.05
44079;BME280;29744;49.078;12.878;2022-08-01T04:32:39;96358.47;;;20.72;41.67
44079;BME280;29744;49.078;12.878;2022-08-01T04:37:42;96361.19;;;20.72;42.14
44079;BME280;29744;49.078;12.878;2022-08-01T04:42:44;96362.34;;;20.71;41.88
44079;BME280;29744;49.078;12.878;2022-08-01T04:47:44;96365.06;;;20.71;41.89
44079;BME280;29744;49.078;12.878;2022-08-01T04:52:45;96366.22;;;20.70;42.15
44079;BME280;29744;49.078;12.878;2022-08-01T04:57:46;96367.81;;;20.71;41.96
44079;BME280;29744;49.078;12.878;2022-08-01T05:02:47;96374.81;;;20.72;42.27
44079;BME280;29744;49.078;12.878;2022-08-01T05:07:47;96374.81;;;20.72;42.07
44079;BME280;29744;49.078;12.878;2022-08-01T05:12:47;96384.22;;;20.74;42.05
44079;BME280;29744;49.078;12.878;2022-08-01T05:17:48;96385.78;;;20.75;42.01
44079;BME280;29744;49.078;12.878;2022-08-01T05:22:48;96383.06;;;20.75;42.19
44079;BME280;29744;49.078;12.878;2022-08-01T05:27:48;96381.91;;;20.76;41.70
44079;BME280;29744;49.078;12.878;2022-08-01T05:32:49;96381.91;;;20.76;42.24
44079;BME280;29744;49.078;12.878;2022-08-01T05:37:49;96386.19;;;20.77;42.37
44079;BME280;29744;49.078;12.878;2022-08-01T05:42:49;96387.00;;;20.78;42.40
44079;BME280;29744;49.078;12.878;2022-08-01T05:47:50;96386.19;;;20.77;41.99
44079;BME280;29744;49.078;12.878;2022-08-01T05:52:50;96384.25;;;20.78;42.40
44079;BME280;29744;49.078;12.878;2022-08-01T05:57:50;96391.28;;;20.79;42.05
44079;BME280;29744;49.078;12.878;2022-08-01T06:02:51;96396.75;;;20.79;42.05
44079;BME280;29744;49.078;12.878;2022-08-01T06:07:51;96396.75;;;20.79;41.60
44079;BME280;29744;49.078;12.878;2022-08-01T06:12:51;96403.75;;;20.80;41.98
44079;BME280;29744;49.078;12.878;2022-08-01T06:17:51;96398.31;;;20.80;42.17
44079;BME280;29744;49.078;12.878;2022-08-01T06:22:52;96408.44;;;20.79;42.44
44079;BME280;29744;49.078;12.878;2022-08-01T06:27:52;96421.31;;;20.82;42.28
44079;BME280;29744;49.078;12.878;2022-08-01T06:32:53;96428.72;;;20.82;41.87
44079;BME280;29744;49.078;12.878;2022-08-01T06:37:56;96434.97;;;20.82;41.88
44079;BME280;29744;49.078;12.878;2022-08-01T06:42:57;96430.28;;;20.83;41.90
44079;BME280;29744;49.078;12.878;2022-08-01T06:47:57;96435.38;;;20.84;42.07
44079;BME280;29744;49.078;12.878;2022-08-01T06:52:57;96431.50;;;20.85;42.16
44079;BME280;29744;49.078;12.878;2022-08-01T06:57:58;96443.19;;;20.86;41.81
44079;BME280;29744;49.078;12.878;2022-08-01T07:02:58;96437.75;;;20.86;41.67
44079;BME280;29744;49.078;12.878;2022-08-01T07:08:00;96443.97;;;20.86;41.99
44079;BME280;29744;49.078;12.878;2022-08-01T07:13:00;96438.53;;;20.86;42.06
44079;BME280;29744;49.078;12.878;2022-08-01T07:18:00;96447.50;;;20.87;42.09
44079;BME280;29744;49.078;12.878;2022-08-01T07:23:03;96441.25;;;20.86;41.66
44079;BME280;29744;49.078;12.878;2022-08-01T07:28:04;96441.25;;;20.86;42.01
44079;BME280;29744;49.078;12.878;2022-08-01T07:33:04;96438.53;;;20.86;41.94
44079;BME280;29744;49.078;12.878;2022-08-01T07:38:07;96443.97;;;20.86;41.92
44079;BME280;29744;49.078;12.878;2022-08-01T07:43:08;96443.63;;;20.88;41.73
44079;BME280;29744;49.078;12.878;2022-08-01T07:48:08;96448.28;;;20.88;41.55
44079;BME280;29744;49.078;12.878;2022-08-01T07:53:08;96454.50;;;20.88;42.05
44079;BME280;29744;49.078;12.878;2022-08-01T07:58:10;96450.63;;;20.89;41.62
44079;BME280;29744;49.078;12.878;2022-08-01T08:03:10;96458.03;;;20.89;42.26
44079;BME280;29744;49.078;12.878;2022-08-01T08:08:11;96451.00;;;20.88;41.92
44079;BME280;29744;49.078;12.878;2022-08-01T08:13:11;96451.00;;;20.88;41.85
44079;BME280;29744;49.078;12.878;2022-08-01T08:18:11;96458.38;;;20.87;41.80
44079;BME280;29744;49.078;12.878;2022-08-01T08:23:12;96462.69;;;20.88;41.86
44079;BME280;29744;49.078;12.878;2022-08-01T08:28:31;96459.19;;;20.88;41.93
44079;BME280;29744;49.078;12.878;2022-08-01T08:33:31;96461.91;;;20.88;41.98
44079;BME280;29744;49.078;12.878;2022-08-01T08:38:32;96453.72;;;20.88;42.17
44079;BME280;29744;49.078;12.878;2022-08-01T08:43:32;96453.72;;;20.88;42.05
44079;BME280;29744;49.078;12.878;2022-08-01T08:48:32;96459.97;;;20.88;42.23
44079;BME280;29744;49.078;12.878;2022-08-01T08:53:34;96460.75;;;20.89;41.61
44079;BME280;29744;49.078;12.878;2022-08-01T08:58:36;96458.81;;;20.89;42.15
44079;BME280;29744;49.078;12.878;2022-08-01T09:03:38;96451.78;;;20.88;41.67
44079;BME280;29744;49.078;12.878;2022-08-01T09:08:39;96445.97;;;20.90;42.16
44079;BME280;29744;49.078;12.878;2022-08-01T09:13:40;96455.31;;;20.89;41.71
44079;BME280;29744;49.078;12.878;2022-08-01T09:18:40;96458.81;;;20.89;42.16
44079;BME280;29744;49.078;12.878;2022-08-01T09:23:51;96460.75;;;20.89;41.42
44079;BME280;29744;49.078;12.878;2022-08-01T09:28:51;96465.06;;;20.90;41.91
44079;BME280;29744;49.078;12.878;2022-08-01T09:33:59;96456.09;;;20.89;41.65
44079;BME280;29744;49.078;12.878;2022-08-01T09:39:12;96456.88;;;20.90;42.11
44079;BME280;29744;49.078;12.878;2022-08-01T09:44:14;96452.22;;;20.90;41.84
44079;BME280;29744;49.078;12.878;2022-08-01T09:49:30;96456.09;;;20.89;42.03
44079;BME280;29744;49.078;12.878;2022-08-01T09:54:32;96467.00;;;20.89;42.23
44079;BME280;29744;49.078;12.878;2022-08-01T09:59:37;96462.31;;;20.90;41.98
44079;BME280;29744;49.078;12.878;2022-08-01T10:04:46;96467.78;;;20.90;41.79
44079;BME280;29744;49.078;12.878;2022-08-01T10:09:50;96456.88;;;20.90;41.98
44079;BME280;29744;49.078;12.878;2022-08-01T10:14:51;96443.66;;;20.92;41.95
44079;BME280;29744;49.078;12.878;2022-08-01T10:19:56;96446.41;;;20.92;42.05
44079;BME280;29744;49.078;12.878;2022-08-01T10:24:57;96439.00;;;20.92;42.02
44079;BME280;29744;49.078;12.878;2022-08-01T10:30:03;96437.84;;;20.93;41.83
44079;BME280;29744;49.078;12.878;2022-08-01T10:35:05;96438.63;;;20.94;41.96
44079;BME280;29744;49.078;12.878;2022-08-01T10:40:07;96432.03;;;20.95;41.97
44079;BME280;29744;49.078;12.878;2022-08-01T10:45:13;96441.00;;;20.95;41.71
44079;BME280;29744;49.078;12.878;2022-08-01T10:50:23;96435.91;;;20.94;41.81
44079;BME280;29744;49.078;12.878;2022-08-01T10:55:25;96430.09;;;20.95;41.92
44079;BME280;29744;49.078;12.878;2022-08-01T11:00:25;96428.94;;;20.96;41.63
44079;BME280;29744;49.078;12.878;2022-08-01T11:05:28;96428.16;;;20.96;41.83
44079;BME280;29744;49.078;12.878;2022-08-01T11:10:37;96425.78;;;20.94;42.02
44079;BME280;29744;49.078;12.878;2022-08-01T11:15:38;96427.38;;;20.95;42.21
44079;BME280;29744;49.078;12.878;2022-08-01T11:20:55;96421.50;;;20.93;42.03
44079;BME280;29744;49.078;12.878;2022-08-01T11:41:22;96429.72;;;20.97;41.81
44079;BME280;29744;49.078;12.878;2022-08-01T11:46:49;96427.38;;;20.95;42.01
44079;BME280;29744;49.078;12.878;2022-08-01T11:52:23;96428.88;;;20.93;41.76
44079;BME280;29744;49.078;12.878;2022-08-01T11:57:27;96424.28;;;20.97;41.94
44079;BME280;29744;49.078;12.878;2022-08-01T12:02:31;96424.09;;;20.86;42.02
44079;BME280;29744;49.078;12.878;2022-08-01T12:07:33;96422.69;;;20.96;42.06
44079;BME280;29744;49.078;12.878;2022-08-01T12:12:35;96423.50;;;20.96;41.62
44079;BME280;29744;49.078;12.878;2022-08-01T12:17:36;96424.28;;;20.97;41.80
44079;BME280;29744;49.078;12.878;2022-08-01T12:22:37;96425.06;;;20.97;42.19
44079;BME280;29744;49.078;12.878;2022-08-01T12:27:39;96416.53;;;20.99;42.00
44079;BME280;29744;49.078;12.878;2022-08-01T12:32:42;96424.69;;;20.99;41.72
44079;BME280;29744;49.078;12.878;2022-08-01T12:37:47;96415.72;;;20.98;41.88
44079;BME280;29744;49.078;12.878;2022-08-01T12:42:52;96419.25;;;20.99;42.10
44079;BME280;29744;49.078;12.878;2022-08-01T12:47:54;96415.38;;;21.00;41.92
44079;BME280;29744;49.078;12.878;2022-08-01T12:52:55;96400.94;;;20.99;42.05
44079;BME280;29744;49.078;12.878;2022-08-01T12:58:06;96409.13;;;20.99;41.97
44079;BME280;29744;49.078;12.878;2022-08-01T13:03:14;96398.59;;;20.98;41.86
44079;BME280;29744;49.078;12.878;2022-08-01T13:08:23;96402.53;;;21.00;41.86
44079;BME280;29744;49.078;12.878;2022-08-01T13:13:24;96393.91;;;20.98;42.02
44079;BME280;29744;49.078;12.878;2022-08-01T13:18:29;96397.06;;;21.00;41.88
44079;BME280;29744;49.078;12.878;2022-08-01T13:23:30;96393.91;;;20.98;41.92
44079;BME280;29744;49.078;12.878;2022-08-01T13:28:30;96392.78;;;20.99;41.68
44079;BME280;29744;49.078;12.878;2022-08-01T13:33:43;96383.81;;;20.99;41.93
44079;BME280;29744;49.078;12.878;2022-08-01T13:38:43;96390.03;;;20.99;41.79
44079;BME280;29744;49.078;12.878;2022-08-01T13:44:02;96387.31;;;20.99;41.97
44079;BME280;29744;49.078;12.878;2022-08-01T13:49:03;96387.31;;;20.99;41.93
44079;BME280;29744;49.078;12.878;2022-08-01T13:54:04;96387.31;;;20.99;42.01
44079;BME280;29744;49.078;12.878;2022-08-01T13:59:04;96388.88;;;21.00;41.98
44079;BME280;29744;49.078;12.878;2022-08-01T14:04:06;96386.16;;;21.00;42.05
44079;BME280;29744;49.078;12.878;2022-08-01T14:09:07;96382.28;;;21.01;42.07
44079;BME280;29744;49.078;12.878;2022-08-01T14:14:07;96372.16;;;21.02;42.21
44079;BME280;29744;49.078;12.878;2022-08-01T14:19:08;96372.16;;;21.02;41.83
44079;BME280;29744;49.078;12.878;2022-08-01T14:24:08;96376.84;;;21.01;41.97
44079;BME280;29744;49.078;12.878;2022-08-01T14:29:09;96370.22;;;21.02;41.98
44079;BME280;29744;49.078;12.878;2022-08-01T14:34:09;96374.53;;;21.03;42.23
44079;BME280;29744;49.078;12.878;2022-08-01T14:39:10;96371.78;;;21.03;42.03
44079;BME280;29744;49.078;12.878;2022-08-01T14:44:10;96369.06;;;21.03;41.77
44079;BME280;29744;49.078;12.878;2022-08-01T14:49:11;96364.41;;;21.04;42.17
44079;BME280;29744;49.078;12.878;2022-08-01T14:54:11;96365.19;;;21.04;41.63
44079;BME280;29744;49.078;12.878;2022-08-01T14:59:11;96364.41;;;21.04;41.98
44079;BME280;29744;49.078;12.878;2022-08-01T15:04:12;96362.84;;;21.03;41.84
44079;BME280;29744;49.078;12.878;2022-08-01T15:09:12;96367.13;;;21.04;41.85
44079;BME280;29744;49.078;12.878;2022-08-01T15:14:13;96374.53;;;21.03;41.89
44079;BME280;29744;49.078;12.878;2022-08-01T15:19:31;96364.78;;;21.02;42.08
44079;BME280;29744;49.078;12.878;2022-08-01T15:24:32;96362.84;;;21.03;41.97
44079;BME280;29744;49.078;12.878;2022-08-01T15:29:32;96371.78;;;21.03;41.99
44079;BME280;29744;49.078;12.878;2022-08-01T15:34:35;96369.06;;;21.03;42.20
44079;BME280;29744;49.078;12.878;2022-08-01T15:39:35;96377.25;;;21.03;41.99
44079;BME280;29744;49.078;12.878;2022-08-01T15:44:36;96371.00;;;21.03;42.20
44079;BME280;29744;49.078;12.878;2022-08-01T15:49:38;96375.69;;;21.02;41.93
44079;BME280;29744;49.078;12.878;2022-08-01T15:54:38;96375.69;;;21.02;42.24
44079;BME280;29744;49.078;12.878;2022-08-01T15:59:40;96372.16;;;21.02;41.78
44079;BME280;29744;49.078;12.878;2022-08-01T16:04:40;96371.00;;;21.03;41.93
44079;BME280;29744;49.078;12.878;2022-08-01T16:09:41;96370.22;;;21.02;42.34
44079;BME280;29744;49.078;12.878;2022-08-01T16:14:41;96361.25;;;21.02;42.05
44079;BME280;29744;49.078;12.878;2022-08-01T16:19:41;96362.84;;;21.03;41.92
44079;BME280;29744;49.078;12.878;2022-08-01T16:24:42;96364.78;;;21.02;41.75
44079;BME280;29744;49.078;12.878;2022-08-01T16:29:42;96365.94;;;21.01;41.98
44079;BME280;29744;49.078;12.878;2022-08-01T16:34:42;96360.47;;;21.01;42.03
44079;BME280;29744;49.078;12.878;2022-08-01T16:39:43;96367.50;;;21.02;41.87
44079;BME280;29744;49.078;12.878;2022-08-01T16:44:44;96362.84;;;21.03;42.09
44079;BME280;29744;49.078;12.878;2022-08-01T16:49:44;96362.84;;;21.03;42.17
44079;BME280;29744;49.078;12.878;2022-08-01T16:54:45;96351.94;;;21.03;42.05
44079;BME280;29744;49.078;12.878;2022-08-01T16:59:45;96351.13;;;21.02;41.68
44079;BME280;29744;49.078;12.878;2022-08-01T17:04:45;96359.31;;;21.02;42.09
44079;BME280;29744;49.078;12.878;2022-08-01T17:09:46;96360.47;;;21.01;42.34
44079;BME280;29744;49.078;12.878;2022-08-01T17:14:46;96364.78;;;21.02;42.00
44079;BME280;29744;49.078;12.878;2022-08-01T17:19:47;96363.19;;;21.01;41.78
44079;BME280;29744;49.078;12.878;2022-08-01T17:24:48;96369.44;;;21.02;42.36
44079;BME280;29744;49.078;12.878;2022-08-01T17:29:50;96383.06;;;21.02;42.02
44079;BME280;29744;49.078;12.878;2022-08-01T17:34:50;96381.13;;;21.02;41.92
44079;BME280;29744;49.078;12.878;2022-08-01T17:39:50;96386.59;;;21.02;41.83
44079;BME280;29744;49.078;12.878;2022-08-01T17:44:51;96386.59;;;21.02;42.48
44079;BME280;29744;49.078;12.878;2022-08-01T17:49:51;96397.50;;;21.02;41.95
44079;BME280;29744;49.078;12.878;2022-08-01T17:54:51;96390.03;;;20.99;42.03
44079;BME280;29744;49.078;12.878;2022-08-01T17:59:52;96401.00;;;21.03;42.09
44079;BME280;29744;49.078;12.878;2022-08-01T18:04:53;96405.66;;;21.02;41.83
44079;BME280;29744;49.078;12.878;2022-08-01T18:09:53;96402.16;;;21.02;42.11
44079;BME280;29744;49.078;12.878;2022-08-01T18:14:53;96404.09;;;21.01;42.31
44079;BME280;29744;49.078;12.878;2022-08-01T18:19:54;96403.31;;;21.01;42.11
44079;BME280;29744;49.078;12.878;2022-08-01T18:24:55;96407.19;;;21.00;42.50
44079;BME280;29744;49.078;12.878;2022-08-01T18:29:55;96413.44;;;21.00;42.29
44079;BME280;29744;49.078;12.878;2022-08-01T18:34:56;96421.59;;;21.00;42.10
44079;BME280;29744;49.078;12.878;2022-08-01T18:39:56;96429.78;;;21.00;42.16
44079;BME280;29744;49.078;12.878;2022-08-01T18:44:56;96437.97;;;21.00;42.47
44079;BME280;29744;49.078;12.878;2022-08-01T18:49:57;96446.13;;;21.00;41.80
44079;BME280;29744;49.078;12.878;2022-08-01T18:54:57;96441.84;;;20.99;42.25
44079;BME280;29744;49.078;12.878;2022-08-01T18:59:57;96448.09;;;21.00;42.28
44079;BME280;29744;49.078;12.878;2022-08-01T19:04:58;96455.47;;;20.99;41.87
44079;BME280;29744;49.078;12.878;2022-08-01T19:09:58;96460.91;;;20.99;42.16
44079;BME280;29744;49.078;12.878;2022-08-01T19:14:59;96460.91;;;20.99;42.19
44079;BME280;29744;49.078;12.878;2022-08-01T19:19:59;96476.84;;;20.97;42.30
44079;BME280;29744;49.078;12.878;2022-08-01T19:24:59;96490.91;;;20.99;42.08
44079;BME280;29744;49.078;12.878;2022-08-01T19:30:01;96481.94;;;20.99;42.27
44079;BME280;29744;49.078;12.878;2022-08-01T19:35:05;96489.34;;;20.98;42.36
44079;BME280;29744;49.078;12.878;2022-08-01T19:40:06;96494.00;;;20.98;41.98
44079;BME280;29744;49.078;12.878;2022-08-01T19:45:07;96500.25;;;20.98;42.07
44079;BME280;29744;49.078;12.878;2022-08-01T19:50:08;96512.31;;;20.97;42.42
44079;BME280;29744;49.078;12.878;2022-08-01T19:55:09;96525.94;;;20.97;42.17
44079;BME280;29744;49.078;12.878;2022-08-01T20:00:10;96526.72;;;20.98;42.52
44079;BME280;29744;49.078;12.878;2022-08-01T20:05:11;96524.00;;;20.98;42.23
44079;BME280;29744;49.078;12.878;2022-08-01T20:10:12;96524.00;;;20.98;42.23
44079;BME280;29744;49.078;12.878;2022-08-01T20:15:12;96524.00;;;20.98;42.13
44079;BME280;29744;49.078;12.878;2022-08-01T20:20:13;96525.94;;;20.97;41.92
44079;BME280;29744;49.078;12.878;2022-08-01T20:25:14;96525.94;;;20.97;42.36
44079;BME280;29744;49.078;12.878;2022-08-01T20:30:19;96527.09;;;20.96;42.20
44079;BME280;29744;49.078;12.878;2022-08-01T20:35:19;96516.97;;;20.97;42.57
44079;BME280;29744;49.078;12.878;2022-08-01T20:40:20;96523.56;;;20.96;42.26
44079;BME280;29744;49.078;12.878;2022-08-01T20:45:23;96530.59;;;20.97;42.24
44079;BME280;29744;49.078;12.878;2022-08-01T20:50:23;96538.00;;;20.96;42.06
44079;BME280;29744;49.078;12.878;2022-08-01T20:55:53;96546.53;;;20.95;42.16
44079;BME280;29744;49.078;12.878;2022-08-01T21:00:55;96548.91;;;20.96;42.24
44079;BME280;29744;49.078;12.878;2022-08-01T21:06:04;96542.66;;;20.96;42.45
44079;BME280;29744;49.078;12.878;2022-08-01T21:11:12;96548.09;;;20.96;42.39
44079;BME280;29744;49.078;12.878;2022-08-01T21:16:23;96551.63;;;20.96;42.25
44079;BME280;29744;49.078;12.878;2022-08-01T21:21:25;96547.31;;;20.95;42.44
44079;BME280;29744;49.078;12.878;2022-08-01T21:26:27;96552.78;;;20.95;42.46
44079;BME280;29744;49.078;12.878;2022-08-01T21:31:31;96561.72;;;20.96;42.35
44079;BME280;29744;49.078;12.878;2022-08-01T21:36:33;96553.56;;;20.96;41.82
44079;BME280;29744;49.078;12.878;2022-08-01T21:41:33;96556.66;;;20.94;42.45
44079;BME280;29744;49.078;12.878;2022-08-01T21:46:34;96562.47;;;20.93;42.16
44079;BME280;29744;49.078;12.878;2022-08-01T21:51:41;96565.19;;;20.93;42.39
44079;BME280;29744;49.078;12.878;2022-08-01T22:02:31;96558.94;;;20.92;42.40
44079;BME280;29744;49.078;12.878;2022-08-01T22:07:44;96562.47;;;20.93;42.38
44079;BME280;29744;49.078;12.878;2022-08-01T22:12:45;96571.78;;;20.92;42.52
44079;BME280;29744;49.078;12.878;2022-08-01T22:17:46;96571.78;;;20.92;42.10
44079;BME280;29744;49.078;12.878;2022-08-01T22:22:49;96580.75;;;20.92;42.64
44079;BME280;29744;49.078;12.878;2022-08-01T22:27:50;96575.66;;;20.91;42.35
44079;BME280;29744;49.078;12.878;2022-08-01T22:32:51;96576.81;;;20.90;42.42
44079;BME280;29744;49.078;12.878;2022-08-01T22:37:51;96580.31;;;20.90;41.99
44079;BME280;29744;49.078;12.878;2022-08-01T22:42:58;96577.59;;;20.90;42.23
44079;BME280;29744;49.078;12.878;2022-08-01T22:58:29;96570.56;;;20.89;42.54
44079;BME280;29744;49.078;12.878;2022-08-01T23:03:34;96573.66;;;20.88;42.58
44079;BME280;29744;49.078;12.878;2022-08-01T23:08:36;96577.53;;;20.86;42.46
44079;BME280;29744;49.078;12.878;2022-08-01T23:13:37;96581.06;;;20.87;42.31
44079;BME280;29744;49.078;12.878;2022-08-01T23:18:38;96581.06;;;20.87;42.49
44079;BME280;29744;49.078;12.878;2022-08-01T23:23:39;96573.66;;;20.88;42.61
44079;BME280;29744;49.078;12.878;2022-08-01T23:28:40;96580.63;;;20.85;42.27
44079;BME280;29744;49.078;12.878;2022-08-01T23:33:40;96579.03;;;20.84;42.34
44079;BME280;29744;49.078;12.878;2022-08-01T23:38:41;96584.50;;;20.84;42.09
44079;BME280;29744;49.078;12.878;2022-08-01T23:43:42;96578.25;;;20.83;42.71
44079;BME280;29744;49.078;12.878;2022-08-01T23:48:43;96585.66;;;20.83;42.46
44079;BME280;29744;49.078;12.878;2022-08-01T23:53:43;96573.97;;;20.82;42.28
44079;BME280;29744;49.078;12.878;2022-08-01T23:58:43;96576.25;;;20.80;42.11
